Shagang Hongfa — 9V9138 — position and weather

sailwx.info

Track history (hours):
 
Tides and Currents Weather Stations Pressure Air Temp Water Temp Dewpoint Dewpoint Depression Visibility Wind Speed Wind Dir Waves Ship Positions

Shagang Hongfa

Last reported at 2017-Apr-15 05:10 UTC. Time now 2017-Apr-29 03:26 UTC.
Position N 22°23' E 119°55'.
Warning: this ship's position is 13 days out of date.

Length 292 m; draft 10.2 m.

Type: Cargo ship. MMSI: 566178000.

Date/timePositionNaut miles runAvg speedWind from/ knotsBaromVisibWave heightAir tempDewpointWater temp
2017-Apr-15 05:10N 22°23' E 119°55'212.5
2017-Apr-15 04:59N 22°25' E 119°55'612.3
2017-Apr-15 04:30N 22°31' E 119°56'612.6
2017-Apr-15 04:00N 22°37' E 119°55'612.4
2017-Apr-15 03:30N 22°43' E 119°56'612.3
2017-Apr-15 03:00N 22°50' E 119°55'611.6
2017-Apr-15 02:30N 22°55' E 119°54'47211.5
2017-Apr-13 09:30N 29°57' E 123°50'1312.3
2017-Apr-13 08:29N 30°09' E 123°55'913.0
2017-Apr-13 07:45N 30°18' E 123°54'312.9
2017-Apr-13 07:30N 30°21' E 123°54'712.7
2017-Apr-13 06:57N 30°28' E 123°53'512.1
2017-Apr-13 06:30N 30°34' E 123°54'611.9
2017-Apr-13 05:59N 30°40' E 123°54'711.6
2017-Apr-13 05:22N 30°47' E 123°55'411.4
2017-Apr-13 05:00N 30°51' E 123°55'511.1
2017-Apr-13 04:30N 30°56' E 123°55'510.6
2017-Apr-13 04:00N 31°02' E 123°55'510.5
2017-Apr-13 03:30N 31°07' E 123°56'510.7
2017-Apr-13 03:00N 31°12' E 123°57'611.0
2017-Apr-13 02:30N 31°18' E 123°58'510.4
2017-Apr-13 02:00N 31°22' E 123°55'510.9
2017-Apr-13 01:30N 31°28' E 123°56'611.1
2017-Apr-13 01:00N 31°33' E 123°55'612.2
2017-Apr-13 00:30N 31°39' E 123°57'612.5
2017-Apr-13 00:00N 31°46' E 123°58'712.9
2017-Apr-12 23:29N 31°52' E 123°58'713.2
2017-Apr-12 23:00N 31°59' E 123°59'713.2
2017-Apr-12 22:30N 32°05' E 124°02'  
Track history (hours):
 
Tides and Currents Weather Stations Pressure Air Temp Water Temp Dewpoint Dewpoint Depression Visibility Wind Speed Wind Dir Waves Ship Positions

Shagang Hongfa

Last reported at 2017-Apr-15 05:10 UTC. Time now 2017-Apr-29 03:26 UTC.
Position N 22°23' E 119°55'.
Warning: this ship's position is 13 days out of date.

Length 292 m; draft 10.2 m.

Type: Cargo ship. MMSI: 566178000.

Date/timePositionNaut miles runAvg speedWind from/ knotsBaromVisibWave heightAir tempDewpointWater temp
2017-Apr-15 05:10N 22°23' E 119°55'212.5
2017-Apr-15 04:59N 22°25' E 119°55'612.3
2017-Apr-15 04:30N 22°31' E 119°56'612.6
2017-Apr-15 04:00N 22°37' E 119°55'612.4
2017-Apr-15 03:30N 22°43' E 119°56'612.3
2017-Apr-15 03:00N 22°50' E 119°55'611.6
2017-Apr-15 02:30N 22°55' E 119°54'47211.5
2017-Apr-13 09:30N 29°57' E 123°50'1312.3
2017-Apr-13 08:29N 30°09' E 123°55'913.0
2017-Apr-13 07:45N 30°18' E 123°54'312.9
2017-Apr-13 07:30N 30°21' E 123°54'712.7
2017-Apr-13 06:57N 30°28' E 123°53'512.1
2017-Apr-13 06:30N 30°34' E 123°54'611.9
2017-Apr-13 05:59N 30°40' E 123°54'711.6
2017-Apr-13 05:22N 30°47' E 123°55'411.4
2017-Apr-13 05:00N 30°51' E 123°55'511.1
2017-Apr-13 04:30N 30°56' E 123°55'510.6
2017-Apr-13 04:00N 31°02' E 123°55'510.5
2017-Apr-13 03:30N 31°07' E 123°56'510.7
2017-Apr-13 03:00N 31°12' E 123°57'611.0
2017-Apr-13 02:30N 31°18' E 123°58'510.4
2017-Apr-13 02:00N 31°22' E 123°55'510.9
2017-Apr-13 01:30N 31°28' E 123°56'611.1
2017-Apr-13 01:00N 31°33' E 123°55'612.2
2017-Apr-13 00:30N 31°39' E 123°57'612.5
2017-Apr-13 00:00N 31°46' E 123°58'712.9
2017-Apr-12 23:29N 31°52' E 123°58'713.2
2017-Apr-12 23:00N 31°59' E 123°59'713.2
2017-Apr-12 22:30N 32°05' E 124°02'  

Dump ship's entire track history